sensor_id;sensor_type;location;lat;lon;timestamp;P1;durP1;ratioP1;P2;durP2;ratioP2
62997;SDS011;55949;52.590;7.330;2022-10-31T00:00:19;26.88;;;12.82;;
62997;SDS011;55949;52.590;7.330;2022-10-31T00:01:21;23.02;;;13.23;;
62997;SDS011;55949;52.590;7.330;2022-10-31T00:02:35;26.88;;;13.75;;
62997;SDS011;55949;52.590;7.330;2022-10-31T00:03:36;24.52;;;13.48;;
62997;SDS011;55949;52.590;7.330;2022-10-31T00:04:37;28.10;;;14.45;;
62997;SDS011;55949;52.590;7.330;2022-10-31T00:05:45;24.45;;;13.27;;
62997;SDS011;55949;52.590;7.330;2022-10-31T00:06:46;34.13;;;15.18;;
62997;SDS011;55949;52.590;7.330;2022-10-31T00:07:47;24.23;;;13.40;;
62997;SDS011;55949;52.590;7.330;2022-10-31T00:08:52;24.00;;;12.93;;
62997;SDS011;55949;52.590;7.330;2022-10-31T00:09:54;20.92;;;12.75;;
62997;SDS011;55949;52.590;7.330;2022-10-31T00:10:55;23.33;;;13.82;;
62997;SDS011;55949;52.590;7.330;2022-10-31T00:11:55;23.70;;;12.48;;
62997;SDS011;55949;52.590;7.330;2022-10-31T00:12:56;24.50;;;11.90;;
62997;SDS011;55949;52.590;7.330;2022-10-31T00:13:57;24.85;;;11.98;;
62997;SDS011;55949;52.590;7.330;2022-10-31T00:14:59;25.17;;;13.10;;
62997;SDS011;55949;52.590;7.330;2022-10-31T00:15:59;27.92;;;12.27;;
62997;SDS011;55949;52.590;7.330;2022-10-31T00:17:00;27.55;;;11.85;;
62997;SDS011;55949;52.590;7.330;2022-10-31T00:18:01;25.60;;;13.63;;
62997;SDS011;55949;52.590;7.330;2022-10-31T00:19:03;32.17;;;13.63;;
62997;SDS011;55949;52.590;7.330;2022-10-31T00:20:06;27.08;;;13.88;;
62997;SDS011;55949;52.590;7.330;2022-10-31T00:21:07;23.75;;;12.50;;
62997;SDS011;55949;52.590;7.330;2022-10-31T00:22:08;28.08;;;13.30;;
62997;SDS011;55949;52.590;7.330;2022-10-31T00:23:09;23.15;;;13.30;;
62997;SDS011;55949;52.590;7.330;2022-10-31T00:24:11;24.05;;;12.45;;
62997;SDS011;55949;52.590;7.330;2022-10-31T00:25:12;22.60;;;12.77;;
62997;SDS011;55949;52.590;7.330;2022-10-31T00:26:12;23.52;;;12.23;;
62997;SDS011;55949;52.590;7.330;2022-10-31T00:27:13;23.25;;;12.90;;
62997;SDS011;55949;52.590;7.330;2022-10-31T00:28:14;25.58;;;12.52;;
62997;SDS011;55949;52.590;7.330;2022-10-31T00:29:15;24.98;;;12.93;;
62997;SDS011;55949;52.590;7.330;2022-10-31T00:30:16;27.73;;;12.25;;
62997;SDS011;55949;52.590;7.330;2022-10-31T00:31:16;25.30;;;12.75;;
62997;SDS011;55949;52.590;7.330;2022-10-31T00:32:17;30.13;;;14.48;;
62997;SDS011;55949;52.590;7.330;2022-10-31T00:33:18;24.02;;;13.30;;
62997;SDS011;55949;52.590;7.330;2022-10-31T00:34:19;21.13;;;12.00;;
62997;SDS011;55949;52.590;7.330;2022-10-31T00:35:19;26.73;;;13.68;;
62997;SDS011;55949;52.590;7.330;2022-10-31T00:36:20;26.33;;;13.68;;
62997;SDS011;55949;52.590;7.330;2022-10-31T00:37:21;26.15;;;13.65;;
62997;SDS011;55949;52.590;7.330;2022-10-31T00:38:22;27.75;;;14.15;;
62997;SDS011;55949;52.590;7.330;2022-10-31T00:39:22;27.33;;;12.65;;
62997;SDS011;55949;52.590;7.330;2022-10-31T00:40:23;23.83;;;12.88;;
62997;SDS011;55949;52.590;7.330;2022-10-31T00:41:24;34.60;;;15.35;;
62997;SDS011;55949;52.590;7.330;2022-10-31T00:42:24;25.98;;;14.70;;
62997;SDS011;55949;52.590;7.330;2022-10-31T00:43:25;30.55;;;14.57;;
62997;SDS011;55949;52.590;7.330;2022-10-31T00:44:26;30.38;;;13.93;;
62997;SDS011;55949;52.590;7.330;2022-10-31T00:45:26;34.42;;;15.43;;
62997;SDS011;55949;52.590;7.330;2022-10-31T00:46:27;23.45;;;14.50;;
62997;SDS011;55949;52.590;7.330;2022-10-31T00:47:28;30.13;;;14.70;;
62997;SDS011;55949;52.590;7.330;2022-10-31T00:48:28;29.90;;;16.05;;
62997;SDS011;55949;52.590;7.330;2022-10-31T00:49:29;31.25;;;15.52;;
62997;SDS011;55949;52.590;7.330;2022-10-31T00:50:30;28.38;;;14.10;;
62997;SDS011;55949;52.590;7.330;2022-10-31T00:51:31;27.83;;;14.95;;
62997;SDS011;55949;52.590;7.330;2022-10-31T00:52:31;29.50;;;14.70;;
62997;SDS011;55949;52.590;7.330;2022-10-31T00:53:32;26.00;;;14.80;;
62997;SDS011;55949;52.590;7.330;2022-10-31T00:54:33;27.55;;;14.55;;
62997;SDS011;55949;52.590;7.330;2022-10-31T00:55:34;31.13;;;15.98;;
62997;SDS011;55949;52.590;7.330;2022-10-31T00:56:34;33.00;;;15.65;;
62997;SDS011;55949;52.590;7.330;2022-10-31T00:57:35;29.70;;;16.33;;
62997;SDS011;55949;52.590;7.330;2022-10-31T00:58:35;27.48;;;15.10;;
62997;SDS011;55949;52.590;7.330;2022-10-31T00:59:36;28.30;;;14.93;;
62997;SDS011;55949;52.590;7.330;2022-10-31T01:00:37;25.83;;;13.50;;
62997;SDS011;55949;52.590;7.330;2022-10-31T01:01:38;23.52;;;14.38;;
62997;SDS011;55949;52.590;7.330;2022-10-31T01:02:38;29.45;;;15.73;;
62997;SDS011;55949;52.590;7.330;2022-10-31T01:03:39;30.50;;;14.25;;
62997;SDS011;55949;52.590;7.330;2022-10-31T01:04:40;26.60;;;15.23;;
62997;SDS011;55949;52.590;7.330;2022-10-31T01:05:40;30.23;;;15.25;;
62997;SDS011;55949;52.590;7.330;2022-10-31T01:06:41;23.42;;;12.90;;
62997;SDS011;55949;52.590;7.330;2022-10-31T01:07:42;28.10;;;13.27;;
62997;SDS011;55949;52.590;7.330;2022-10-31T01:08:43;22.65;;;12.68;;
62997;SDS011;55949;52.590;7.330;2022-10-31T01:09:43;23.48;;;11.85;;
62997;SDS011;55949;52.590;7.330;2022-10-31T01:10:44;21.83;;;12.35;;
62997;SDS011;55949;52.590;7.330;2022-10-31T01:11:44;22.75;;;11.43;;
62997;SDS011;55949;52.590;7.330;2022-10-31T01:12:47;20.20;;;12.45;;
62997;SDS011;55949;52.590;7.330;2022-10-31T01:13:51;18.23;;;11.15;;
62997;SDS011;55949;52.590;7.330;2022-10-31T01:14:53;18.35;;;11.40;;
62997;SDS011;55949;52.590;7.330;2022-10-31T01:15:54;21.70;;;11.55;;
62997;SDS011;55949;52.590;7.330;2022-10-31T01:16:56;24.85;;;11.98;;
62997;SDS011;55949;52.590;7.330;2022-10-31T01:17:57;23.63;;;12.55;;
62997;SDS011;55949;52.590;7.330;2022-10-31T01:18:57;22.40;;;12.77;;
62997;SDS011;55949;52.590;7.330;2022-10-31T01:19:58;21.98;;;11.35;;
62997;SDS011;55949;52.590;7.330;2022-10-31T01:22:02;19.33;;;11.82;;
62997;SDS011;55949;52.590;7.330;2022-10-31T01:23:03;18.23;;;11.30;;
62997;SDS011;55949;52.590;7.330;2022-10-31T01:24:04;17.42;;;10.55;;
62997;SDS011;55949;52.590;7.330;2022-10-31T01:25:05;28.40;;;12.70;;
62997;SDS011;55949;52.590;7.330;2022-10-31T01:26:11;23.73;;;11.77;;
62997;SDS011;55949;52.590;7.330;2022-10-31T01:27:20;21.77;;;11.40;;
62997;SDS011;55949;52.590;7.330;2022-10-31T01:28:21;21.55;;;11.90;;
62997;SDS011;55949;52.590;7.330;2022-10-31T01:29:22;23.17;;;12.15;;
62997;SDS011;55949;52.590;7.330;2022-10-31T01:30:23;24.25;;;12.75;;
62997;SDS011;55949;52.590;7.330;2022-10-31T01:31:25;22.92;;;12.57;;
62997;SDS011;55949;52.590;7.330;2022-10-31T01:32:27;26.80;;;13.05;;
62997;SDS011;55949;52.590;7.330;2022-10-31T01:33:34;20.13;;;12.07;;
62997;SDS011;55949;52.590;7.330;2022-10-31T01:34:35;23.40;;;12.02;;
62997;SDS011;55949;52.590;7.330;2022-10-31T01:35:36;21.90;;;12.00;;
62997;SDS011;55949;52.590;7.330;2022-10-31T01:36:37;20.23;;;12.40;;
62997;SDS011;55949;52.590;7.330;2022-10-31T01:37:38;20.83;;;11.32;;
62997;SDS011;55949;52.590;7.330;2022-10-31T01:38:39;23.10;;;12.23;;
62997;SDS011;55949;52.590;7.330;2022-10-31T01:39:40;21.95;;;11.60;;
62997;SDS011;55949;52.590;7.330;2022-10-31T01:40:40;20.67;;;12.25;;
62997;SDS011;55949;52.590;7.330;2022-10-31T01:41:43;16.90;;;10.93;;
62997;SDS011;55949;52.590;7.330;2022-10-31T01:42:46;23.00;;;12.20;;
62997;SDS011;55949;52.590;7.330;2022-10-31T01:44:56;22.90;;;11.57;;
62997;SDS011;55949;52.590;7.330;2022-10-31T01:46:00;21.73;;;11.63;;
62997;SDS011;55949;52.590;7.330;2022-10-31T01:47:03;24.83;;;12.27;;
62997;SDS011;55949;52.590;7.330;2022-10-31T01:48:15;20.15;;;11.77;;
62997;SDS011;55949;52.590;7.330;2022-10-31T01:50:26;20.50;;;11.73;;
62997;SDS011;55949;52.590;7.330;2022-10-31T01:51:34;26.80;;;12.15;;
62997;SDS011;55949;52.590;7.330;2022-10-31T01:52:45;19.58;;;11.30;;
62997;SDS011;55949;52.590;7.330;2022-10-31T01:53:50;21.60;;;12.15;;
62997;SDS011;55949;52.590;7.330;2022-10-31T01:54:58;21.23;;;11.93;;
62997;SDS011;55949;52.590;7.330;2022-10-31T01:56:05;21.23;;;11.82;;
62997;SDS011;55949;52.590;7.330;2022-10-31T01:57:06;22.83;;;13.02;;
62997;SDS011;55949;52.590;7.330;2022-10-31T01:58:14;18.30;;;10.88;;
62997;SDS011;55949;52.590;7.330;2022-10-31T01:59:23;24.85;;;12.93;;
62997;SDS011;55949;52.590;7.330;2022-10-31T02:00:28;21.75;;;11.88;;
62997;SDS011;55949;52.590;7.330;2022-10-31T02:01:30;22.55;;;12.02;;
62997;SDS011;55949;52.590;7.330;2022-10-31T02:02:31;24.55;;;12.73;;
62997;SDS011;55949;52.590;7.330;2022-10-31T02:03:32;23.67;;;12.98;;
62997;SDS011;55949;52.590;7.330;2022-10-31T02:04:33;25.20;;;12.73;;
62997;SDS011;55949;52.590;7.330;2022-10-31T02:05:34;25.27;;;13.45;;
62997;SDS011;55949;52.590;7.330;2022-10-31T02:06:41;27.38;;;13.90;;
62997;SDS011;55949;52.590;7.330;2022-10-31T02:09:13;25.77;;;13.60;;
62997;SDS011;55949;52.590;7.330;2022-10-31T02:10:14;23.00;;;12.45;;
62997;SDS011;55949;52.590;7.330;2022-10-31T02:11:16;25.92;;;14.07;;
62997;SDS011;55949;52.590;7.330;2022-10-31T02:12:17;22.65;;;12.90;;
62997;SDS011;55949;52.590;7.330;2022-10-31T02:13:18;28.13;;;14.07;;
62997;SDS011;55949;52.590;7.330;2022-10-31T02:14:23;24.13;;;12.77;;
62997;SDS011;55949;52.590;7.330;2022-10-31T02:15:26;25.98;;;13.18;;
62997;SDS011;55949;52.590;7.330;2022-10-31T02:16:28;28.80;;;13.70;;
62997;SDS011;55949;52.590;7.330;2022-10-31T02:17:29;25.25;;;13.77;;
62997;SDS011;55949;52.590;7.330;2022-10-31T02:18:31;25.38;;;13.32;;
62997;SDS011;55949;52.590;7.330;2022-10-31T02:20:57;28.58;;;14.07;;
62997;SDS011;55949;52.590;7.330;2022-10-31T02:29:18;25.13;;;13.52;;
62997;SDS011;55949;52.590;7.330;2022-10-31T02:32:15;24.52;;;13.68;;
62997;SDS011;55949;52.590;7.330;2022-10-31T02:34:51;23.50;;;14.10;;
62997;SDS011;55949;52.590;7.330;2022-10-31T02:36:37;22.23;;;13.75;;
62997;SDS011;55949;52.590;7.330;2022-10-31T02:37:57;22.95;;;13.68;;
62997;SDS011;55949;52.590;7.330;2022-10-31T02:40:22;21.05;;;13.23;;
62997;SDS011;55949;52.590;7.330;2022-10-31T02:45:48;23.45;;;11.68;;
62997;SDS011;55949;52.590;7.330;2022-10-31T02:47:14;25.52;;;12.02;;
62997;SDS011;55949;52.590;7.330;2022-10-31T02:48:21;24.50;;;13.00;;
62997;SDS011;55949;52.590;7.330;2022-10-31T02:49:34;18.65;;;10.95;;
62997;SDS011;55949;52.590;7.330;2022-10-31T02:50:57;19.52;;;12.05;;
62997;SDS011;55949;52.590;7.330;2022-10-31T02:52:00;18.55;;;11.50;;
62997;SDS011;55949;52.590;7.330;2022-10-31T02:53:01;51.33;;;11.43;;
62997;SDS011;55949;52.590;7.330;2022-10-31T02:54:03;69.97;;;10.93;;
62997;SDS011;55949;52.590;7.330;2022-10-31T02:55:11;62.17;;;10.13;;
62997;SDS011;55949;52.590;7.330;2022-10-31T02:56:32;18.58;;;10.45;;
62997;SDS011;55949;52.590;7.330;2022-10-31T02:57:32;16.10;;;9.85;;
62997;SDS011;55949;52.590;7.330;2022-10-31T02:58:36;18.77;;;10.38;;
62997;SDS011;55949;52.590;7.330;2022-10-31T02:59:44;46.38;;;10.68;;
62997;SDS011;55949;52.590;7.330;2022-10-31T03:01:14;78.70;;;9.73;;
62997;SDS011;55949;52.590;7.330;2022-10-31T03:06:41;50.40;;;9.45;;
62997;SDS011;55949;52.590;7.330;2022-10-31T03:08:03;24.23;;;9.18;;
62997;SDS011;55949;52.590;7.330;2022-10-31T03:09:17;36.25;;;9.23;;
62997;SDS011;55949;52.590;7.330;2022-10-31T03:11:41;53.88;;;10.45;;
62997;SDS011;55949;52.590;7.330;2022-10-31T03:14:12;95.05;;;10.07;;
62997;SDS011;55949;52.590;7.330;2022-10-31T03:15:26;19.45;;;8.43;;
62997;SDS011;55949;52.590;7.330;2022-10-31T03:16:34;50.83;;;9.45;;
62997;SDS011;55949;52.590;7.330;2022-10-31T03:17:45;52.83;;;9.55;;
62997;SDS011;55949;52.590;7.330;2022-10-31T03:19:09;13.40;;;7.93;;
62997;SDS011;55949;52.590;7.330;2022-10-31T03:20:14;12.45;;;7.60;;
62997;SDS011;55949;52.590;7.330;2022-10-31T03:22:22;12.35;;;7.13;;
62997;SDS011;55949;52.590;7.330;2022-10-31T03:23:25;12.93;;;7.65;;
62997;SDS011;55949;52.590;7.330;2022-10-31T03:24:33;11.95;;;6.75;;
62997;SDS011;55949;52.590;7.330;2022-10-31T03:25:37;12.63;;;7.40;;
62997;SDS011;55949;52.590;7.330;2022-10-31T03:26:43;11.77;;;6.80;;
62997;SDS011;55949;52.590;7.330;2022-10-31T03:27:47;14.25;;;7.20;;
62997;SDS011;55949;52.590;7.330;2022-10-31T03:28:54;15.27;;;8.57;;
62997;SDS011;55949;52.590;7.330;2022-10-31T03:30:03;21.15;;;9.35;;
62997;SDS011;55949;52.590;7.330;2022-10-31T03:31:07;24.35;;;9.48;;
62997;SDS011;55949;52.590;7.330;2022-10-31T03:32:12;14.35;;;9.45;;
62997;SDS011;55949;52.590;7.330;2022-10-31T03:33:17;12.88;;;6.93;;
62997;SDS011;55949;52.590;7.330;2022-10-31T03:34:24;11.90;;;7.03;;
62997;SDS011;55949;52.590;7.330;2022-10-31T03:35:25;8.35;;;5.82;;
62997;SDS011;55949;52.590;7.330;2022-10-31T03:36:32;11.65;;;7.32;;
62997;SDS011;55949;52.590;7.330;2022-10-31T03:37:34;7.13;;;5.45;;
62997;SDS011;55949;52.590;7.330;2022-10-31T03:38:38;10.82;;;6.53;;
62997;SDS011;55949;52.590;7.330;2022-10-31T03:39:41;7.20;;;4.78;;
62997;SDS011;55949;52.590;7.330;2022-10-31T03:40:44;10.90;;;6.20;;
62997;SDS011;55949;52.590;7.330;2022-10-31T03:41:53;8.40;;;5.68;;
62997;SDS011;55949;52.590;7.330;2022-10-31T03:43:01;11.82;;;6.82;;
62997;SDS011;55949;52.590;7.330;2022-10-31T03:44:14;17.33;;;9.88;;
62997;SDS011;55949;52.590;7.330;2022-10-31T03:45:26;19.35;;;10.77;;
62997;SDS011;55949;52.590;7.330;2022-10-31T03:46:30;13.18;;;8.43;;
62997;SDS011;55949;52.590;7.330;2022-10-31T03:47:30;15.57;;;9.57;;
62997;SDS011;55949;52.590;7.330;2022-10-31T03:48:32;19.88;;;11.35;;
62997;SDS011;55949;52.590;7.330;2022-10-31T03:49:33;22.02;;;9.48;;
62997;SDS011;55949;52.590;7.330;2022-10-31T03:53:34;22.50;;;7.68;;
62997;SDS011;55949;52.590;7.330;2022-10-31T03:54:43;14.50;;;8.07;;
62997;SDS011;55949;52.590;7.330;2022-10-31T03:55:49;11.98;;;7.85;;
62997;SDS011;55949;52.590;7.330;2022-10-31T03:57:13;14.60;;;9.13;;
62997;SDS011;55949;52.590;7.330;2022-10-31T03:58:26;15.98;;;8.55;;
62997;SDS011;55949;52.590;7.330;2022-10-31T03:59:33;15.55;;;9.35;;
62997;SDS011;55949;52.590;7.330;2022-10-31T04:00:38;17.98;;;10.35;;
62997;SDS011;55949;52.590;7.330;2022-10-31T04:01:44;21.13;;;9.70;;
62997;SDS011;55949;52.590;7.330;2022-10-31T04:03:59;19.52;;;10.27;;
62997;SDS011;55949;52.590;7.330;2022-10-31T04:05:01;17.80;;;10.77;;
62997;SDS011;55949;52.590;7.330;2022-10-31T04:06:04;15.68;;;9.85;;
62997;SDS011;55949;52.590;7.330;2022-10-31T04:07:08;17.27;;;9.80;;
62997;SDS011;55949;52.590;7.330;2022-10-31T04:08:11;15.73;;;9.80;;
62997;SDS011;55949;52.590;7.330;2022-10-31T04:09:16;15.32;;;9.05;;
62997;SDS011;55949;52.590;7.330;2022-10-31T04:10:19;15.05;;;9.63;;
62997;SDS011;55949;52.590;7.330;2022-10-31T04:11:23;16.70;;;9.25;;
62997;SDS011;55949;52.590;7.330;2022-10-31T04:12:27;15.18;;;8.65;;
62997;SDS011;55949;52.590;7.330;2022-10-31T04:13:29;17.05;;;9.25;;
62997;SDS011;55949;52.590;7.330;2022-10-31T04:14:35;13.82;;;8.60;;
62997;SDS011;55949;52.590;7.330;2022-10-31T04:15:39;17.15;;;9.70;;
62997;SDS011;55949;52.590;7.330;2022-10-31T04:16:43;14.70;;;8.77;;
62997;SDS011;55949;52.590;7.330;2022-10-31T04:17:44;14.73;;;9.30;;
62997;SDS011;55949;52.590;7.330;2022-10-31T04:18:47;17.60;;;8.38;;
62997;SDS011;55949;52.590;7.330;2022-10-31T04:19:47;17.23;;;9.18;;
62997;SDS011;55949;52.590;7.330;2022-10-31T04:20:48;21.30;;;11.25;;
62997;SDS011;55949;52.590;7.330;2022-10-31T04:21:50;17.63;;;9.95;;
62997;SDS011;55949;52.590;7.330;2022-10-31T04:22:50;19.77;;;10.68;;
62997;SDS011;55949;52.590;7.330;2022-10-31T04:23:51;16.27;;;9.65;;
62997;SDS011;55949;52.590;7.330;2022-10-31T04:24:51;18.80;;;10.23;;
62997;SDS011;55949;52.590;7.330;2022-10-31T04:25:52;18.70;;;9.45;;
62997;SDS011;55949;52.590;7.330;2022-10-31T04:26:53;15.10;;;8.98;;
62997;SDS011;55949;52.590;7.330;2022-10-31T04:27:54;20.25;;;10.20;;
62997;SDS011;55949;52.590;7.330;2022-10-31T04:28:54;17.17;;;10.55;;
62997;SDS011;55949;52.590;7.330;2022-10-31T04:29:55;17.35;;;9.93;;
62997;SDS011;55949;52.590;7.330;2022-10-31T04:30:56;20.27;;;10.35;;
62997;SDS011;55949;52.590;7.330;2022-10-31T04:31:56;20.63;;;11.05;;
62997;SDS011;55949;52.590;7.330;2022-10-31T04:32:57;20.75;;;10.13;;
62997;SDS011;55949;52.590;7.330;2022-10-31T04:33:58;20.30;;;11.93;;
62997;SDS011;55949;52.590;7.330;2022-10-31T04:34:58;17.92;;;10.57;;
62997;SDS011;55949;52.590;7.330;2022-10-31T04:35:59;18.63;;;11.13;;
62997;SDS011;55949;52.590;7.330;2022-10-31T04:37:00;20.10;;;11.43;;
62997;SDS011;55949;52.590;7.330;2022-10-31T04:38:00;18.95;;;10.93;;
62997;SDS011;55949;52.590;7.330;2022-10-31T04:39:01;19.40;;;10.77;;
62997;SDS011;55949;52.590;7.330;2022-10-31T04:40:02;17.92;;;10.80;;
62997;SDS011;55949;52.590;7.330;2022-10-31T04:41:04;15.43;;;10.43;;
62997;SDS011;55949;52.590;7.330;2022-10-31T04:42:04;17.33;;;10.15;;
62997;SDS011;55949;52.590;7.330;2022-10-31T04:43:05;14.73;;;9.85;;
62997;SDS011;55949;52.590;7.330;2022-10-31T04:44:06;13.60;;;8.95;;
62997;SDS011;55949;52.590;7.330;2022-10-31T04:45:06;14.35;;;8.05;;
62997;SDS011;55949;52.590;7.330;2022-10-31T04:46:07;12.70;;;7.07;;
62997;SDS011;55949;52.590;7.330;2022-10-31T04:47:08;9.90;;;6.65;;
62997;SDS011;55949;52.590;7.330;2022-10-31T04:48:08;11.68;;;7.05;;
62997;SDS011;55949;52.590;7.330;2022-10-31T04:49:09;13.63;;;8.95;;
62997;SDS011;55949;52.590;7.330;2022-10-31T04:50:10;12.90;;;7.93;;
62997;SDS011;55949;52.590;7.330;2022-10-31T04:51:10;12.43;;;7.32;;
62997;SDS011;55949;52.590;7.330;2022-10-31T04:52:11;13.23;;;8.13;;
62997;SDS011;55949;52.590;7.330;2022-10-31T04:53:12;17.30;;;10.30;;
62997;SDS011;55949;52.590;7.330;2022-10-31T04:54:12;13.38;;;9.00;;
62997;SDS011;55949;52.590;7.330;2022-10-31T04:55:13;16.58;;;8.73;;
62997;SDS011;55949;52.590;7.330;2022-10-31T04:56:14;14.57;;;7.43;;
62997;SDS011;55949;52.590;7.330;2022-10-31T04:57:15;14.68;;;8.60;;
62997;SDS011;55949;52.590;7.330;2022-10-31T04:58:16;16.58;;;9.15;;
62997;SDS011;55949;52.590;7.330;2022-10-31T04:59:16;14.32;;;9.05;;
62997;SDS011;55949;52.590;7.330;2022-10-31T05:00:18;16.60;;;9.90;;
62997;SDS011;55949;52.590;7.330;2022-10-31T05:01:20;16.52;;;8.82;;
62997;SDS011;55949;52.590;7.330;2022-10-31T05:02:21;13.82;;;8.43;;
62997;SDS011;55949;52.590;7.330;2022-10-31T05:03:21;13.95;;;8.00;;
62997;SDS011;55949;52.590;7.330;2022-10-31T05:04:22;17.30;;;7.88;;
62997;SDS011;55949;52.590;7.330;2022-10-31T05:05:24;17.13;;;9.20;;
62997;SDS011;55949;52.590;7.330;2022-10-31T05:06:26;15.30;;;8.68;;
62997;SDS011;55949;52.590;7.330;2022-10-31T05:07:27;12.70;;;8.98;;
62997;SDS011;55949;52.590;7.330;2022-10-31T05:08:28;11.63;;;7.70;;
62997;SDS011;55949;52.590;7.330;2022-10-31T05:09:28;17.35;;;9.27;;
62997;SDS011;55949;52.590;7.330;2022-10-31T05:10:29;14.73;;;8.68;;
62997;SDS011;55949;52.590;7.330;2022-10-31T05:11:30;9.75;;;5.90;;
62997;SDS011;55949;52.590;7.330;2022-10-31T05:12:31;10.38;;;6.85;;
62997;SDS011;55949;52.590;7.330;2022-10-31T05:13:32;8.75;;;5.38;;
62997;SDS011;55949;52.590;7.330;2022-10-31T05:14:32;12.43;;;7.20;;
62997;SDS011;55949;52.590;7.330;2022-10-31T05:15:33;7.80;;;5.03;;
62997;SDS011;55949;52.590;7.330;2022-10-31T05:16:34;6.47;;;4.80;;
62997;SDS011;55949;52.590;7.330;2022-10-31T05:17:35;9.48;;;5.25;;
62997;SDS011;55949;52.590;7.330;2022-10-31T05:18:35;10.93;;;6.55;;
62997;SDS011;55949;52.590;7.330;2022-10-31T05:19:36;15.35;;;8.15;;
62997;SDS011;55949;52.590;7.330;2022-10-31T05:20:37;9.93;;;6.45;;
62997;SDS011;55949;52.590;7.330;2022-10-31T05:21:37;11.57;;;7.03;;
62997;SDS011;55949;52.590;7.330;2022-10-31T05:22:42;10.77;;;5.88;;
62997;SDS011;55949;52.590;7.330;2022-10-31T05:23:49;13.18;;;6.32;;
62997;SDS011;55949;52.590;7.330;2022-10-31T05:24:50;10.32;;;6.50;;
62997;SDS011;55949;52.590;7.330;2022-10-31T05:25:51;11.88;;;7.18;;
62997;SDS011;55949;52.590;7.330;2022-10-31T05:26:51;11.00;;;7.07;;
62997;SDS011;55949;52.590;7.330;2022-10-31T05:27:53;13.57;;;7.75;;
62997;SDS011;55949;52.590;7.330;2022-10-31T05:28:54;14.52;;;7.68;;
62997;SDS011;55949;52.590;7.330;2022-10-31T05:29:55;12.30;;;8.45;;
62997;SDS011;55949;52.590;7.330;2022-10-31T05:30:56;13.25;;;8.57;;
62997;SDS011;55949;52.590;7.330;2022-10-31T05:31:57;16.00;;;9.23;;
62997;SDS011;55949;52.590;7.330;2022-10-31T05:32:58;17.38;;;8.80;;
62997;SDS011;55949;52.590;7.330;2022-10-31T05:33:59;12.75;;;9.02;;
62997;SDS011;55949;52.590;7.330;2022-10-31T05:35:00;17.58;;;8.88;;
62997;SDS011;55949;52.590;7.330;2022-10-31T05:36:00;19.60;;;9.52;;
62997;SDS011;55949;52.590;7.330;2022-10-31T05:37:01;15.30;;;9.05;;
62997;SDS011;55949;52.590;7.330;2022-10-31T05:38:02;19.92;;;10.10;;
62997;SDS011;55949;52.590;7.330;2022-10-31T05:39:02;12.13;;;6.60;;
62997;SDS011;55949;52.590;7.330;2022-10-31T05:40:04;13.13;;;8.00;;
62997;SDS011;55949;52.590;7.330;2022-10-31T05:41:05;10.38;;;6.65;;
62997;SDS011;55949;52.590;7.330;2022-10-31T05:42:06;9.85;;;6.30;;
62997;SDS011;55949;52.590;7.330;2022-10-31T05:43:07;9.23;;;6.13;;
62997;SDS011;55949;52.590;7.330;2022-10-31T05:44:08;10.95;;;5.70;;
62997;SDS011;55949;52.590;7.330;2022-10-31T05:45:09;10.52;;;6.20;;
62997;SDS011;55949;52.590;7.330;2022-10-31T05:46:11;10.45;;;6.68;;
62997;SDS011;55949;52.590;7.330;2022-10-31T05:47:12;16.05;;;7.68;;
62997;SDS011;55949;52.590;7.330;2022-10-31T05:48:12;8.57;;;5.88;;
62997;SDS011;55949;52.590;7.330;2022-10-31T05:49:13;12.07;;;7.38;;
62997;SDS011;55949;52.590;7.330;2022-10-31T05:50:14;11.40;;;7.53;;
62997;SDS011;55949;52.590;7.330;2022-10-31T05:51:14;12.38;;;7.35;;
62997;SDS011;55949;52.590;7.330;2022-10-31T05:52:15;13.77;;;8.05;;
62997;SDS011;55949;52.590;7.330;2022-10-31T05:53:17;12.32;;;7.88;;
62997;SDS011;55949;52.590;7.330;2022-10-31T05:54:17;15.32;;;8.35;;
62997;SDS011;55949;52.590;7.330;2022-10-31T05:55:18;14.13;;;8.40;;
62997;SDS011;55949;52.590;7.330;2022-10-31T05:56:19;21.25;;;9.98;;
62997;SDS011;55949;52.590;7.330;2022-10-31T05:57:19;17.83;;;9.90;;
62997;SDS011;55949;52.590;7.330;2022-10-31T05:58:20;19.08;;;9.38;;
62997;SDS011;55949;52.590;7.330;2022-10-31T05:59:21;12.90;;;8.48;;
62997;SDS011;55949;52.590;7.330;2022-10-31T06:00:22;16.25;;;9.55;;
62997;SDS011;55949;52.590;7.330;2022-10-31T06:01:23;13.20;;;8.10;;
62997;SDS011;55949;52.590;7.330;2022-10-31T06:02:24;18.23;;;7.93;;
62997;SDS011;55949;52.590;7.330;2022-10-31T06:03:26;18.75;;;8.15;;
62997;SDS011;55949;52.590;7.330;2022-10-31T06:04:27;15.60;;;8.77;;
62997;SDS011;55949;52.590;7.330;2022-10-31T06:05:28;19.50;;;7.88;;
62997;SDS011;55949;52.590;7.330;2022-10-31T06:06:29;16.77;;;8.43;;
62997;SDS011;55949;52.590;7.330;2022-10-31T06:07:33;13.85;;;8.35;;
62997;SDS011;55949;52.590;7.330;2022-10-31T06:08:35;13.40;;;7.85;;
62997;SDS011;55949;52.590;7.330;2022-10-31T06:09:36;13.38;;;8.07;;
62997;SDS011;55949;52.590;7.330;2022-10-31T06:10:37;13.10;;;8.43;;
62997;SDS011;55949;52.590;7.330;2022-10-31T06:11:37;13.80;;;8.43;;
62997;SDS011;55949;52.590;7.330;2022-10-31T06:12:38;17.02;;;10.13;;
62997;SDS011;55949;52.590;7.330;2022-10-31T06:13:40;16.25;;;10.43;;
62997;SDS011;55949;52.590;7.330;2022-10-31T06:14:41;16.98;;;9.00;;
62997;SDS011;55949;52.590;7.330;2022-10-31T06:15:41;14.15;;;9.38;;
62997;SDS011;55949;52.590;7.330;2022-10-31T06:16:42;19.02;;;8.77;;
62997;SDS011;55949;52.590;7.330;2022-10-31T06:17:43;18.83;;;10.05;;
62997;SDS011;55949;52.590;7.330;2022-10-31T06:18:45;15.00;;;8.77;;
62997;SDS011;55949;52.590;7.330;2022-10-31T06:19:46;15.35;;;9.18;;
62997;SDS011;55949;52.590;7.330;2022-10-31T06:20:47;18.80;;;8.90;;
62997;SDS011;55949;52.590;7.330;2022-10-31T06:21:47;30.23;;;7.38;;
62997;SDS011;55949;52.590;7.330;2022-10-31T06:22:48;26.85;;;7.18;;
62997;SDS011;55949;52.590;7.330;2022-10-31T06:23:49;12.95;;;6.50;;
62997;SDS011;55949;52.590;7.330;2022-10-31T06:24:50;21.85;;;6.70;;
62997;SDS011;55949;52.590;7.330;2022-10-31T06:25:50;21.73;;;6.72;;
62997;SDS011;55949;52.590;7.330;2022-10-31T06:26:51;12.05;;;5.80;;
62997;SDS011;55949;52.590;7.330;2022-10-31T06:27:52;26.10;;;6.53;;
62997;SDS011;55949;52.590;7.330;2022-10-31T06:28:53;34.45;;;6.07;;
62997;SDS011;55949;52.590;7.330;2022-10-31T06:29:54;18.95;;;6.38;;
62997;SDS011;55949;52.590;7.330;2022-10-31T06:30:55;27.25;;;7.05;;
62997;SDS011;55949;52.590;7.330;2022-10-31T06:31:55;18.63;;;7.38;;
62997;SDS011;55949;52.590;7.330;2022-10-31T06:33:02;19.23;;;6.68;;
62997;SDS011;55949;52.590;7.330;2022-10-31T06:34:04;12.63;;;6.13;;
62997;SDS011;55949;52.590;7.330;2022-10-31T06:35:05;13.93;;;6.05;;
62997;SDS011;55949;52.590;7.330;2022-10-31T06:36:06;11.93;;;6.47;;
62997;SDS011;55949;52.590;7.330;2022-10-31T06:37:11;15.23;;;7.45;;
62997;SDS011;55949;52.590;7.330;2022-10-31T06:38:12;19.77;;;7.63;;
62997;SDS011;55949;52.590;7.330;2022-10-31T06:39:14;14.23;;;8.10;;
62997;SDS011;55949;52.590;7.330;2022-10-31T06:40:18;19.00;;;7.53;;
62997;SDS011;55949;52.590;7.330;2022-10-31T06:41:21;29.90;;;8.95;;
62997;SDS011;55949;52.590;7.330;2022-10-31T06:42:22;19.75;;;8.30;;
62997;SDS011;55949;52.590;7.330;2022-10-31T06:43:22;26.92;;;8.32;;
62997;SDS011;55949;52.590;7.330;2022-10-31T06:44:23;17.17;;;8.15;;
62997;SDS011;55949;52.590;7.330;2022-10-31T06:45:24;15.00;;;8.98;;